createdAt,value
2019-05-03T06:56:30.534Z,65.60
2019-05-03T07:01:49.151Z,61.90
2019-05-03T07:07:06.894Z,59.40
2019-05-03T07:12:11.320Z,55.40
2019-05-03T07:17:15.867Z,54.70
2019-05-03T07:22:20.319Z,50.00
2019-05-03T07:27:24.873Z,49.90
2019-05-03T07:32:31.452Z,51.40
2019-05-03T07:37:35.301Z,50.70
2019-05-03T07:42:39.546Z,49.40
2019-05-03T07:47:45.221Z,50.10
2019-05-03T07:52:49.787Z,51.10
2019-05-03T07:57:56.359Z,50.50
2019-05-03T08:03:00.912Z,49.90
2019-05-03T08:08:05.141Z,50.10
2019-05-03T08:13:09.359Z,49.60
2019-05-03T08:18:15.493Z,49.00
2019-05-03T08:23:27.380Z,48.80
2019-05-03T08:28:26.076Z,47.60
2019-05-03T08:33:47.468Z,45.10
2019-05-03T08:38:51.750Z,47.10
2019-05-03T08:43:56.042Z,44.70
2019-05-03T08:49:00.389Z,45.90
2019-05-03T08:54:04.858Z,43.60
2019-05-03T08:59:09.177Z,45.30
2019-05-03T09:04:15.393Z,44.70
2019-05-03T09:09:48.683Z,45.70
2019-05-03T09:14:54.614Z,43.10
2019-05-03T09:19:59.219Z,43.60
2019-05-03T09:25:04.975Z,42.00
2019-05-03T09:30:09.544Z,41.10
2019-05-03T09:35:28.920Z,41.60
2019-05-03T09:40:21.104Z,41.50
2019-05-03T09:45:25.788Z,42.50
2019-05-03T09:50:31.158Z,44.00
2019-05-03T09:55:38.774Z,40.40
2019-05-03T10:00:44.646Z,41.20
2019-05-03T10:05:49.270Z,40.80
2019-05-03T10:11:15.115Z,41.80
2019-05-03T10:16:20.500Z,40.30
2019-05-03T10:21:28.069Z,41.00
2019-05-03T10:26:32.381Z,41.40
2019-05-03T10:32:02.070Z,41.80
2019-05-03T10:37:08.004Z,41.00
2019-05-03T10:42:12.226Z,40.30
2019-05-03T10:47:16.623Z,38.10
2019-05-03T10:52:22.566Z,38.50
2019-05-03T10:57:28.440Z,39.70
2019-05-03T11:02:41.057Z,39.90
2019-05-03T11:07:45.452Z,40.80
2019-05-03T11:12:50.507Z,40.70
2019-05-03T11:17:56.978Z,41.00
2019-05-03T11:23:01.644Z,41.20
2019-05-03T11:28:12.596Z,37.80
2019-05-03T11:33:24.671Z,37.50
2019-05-03T11:38:35.069Z,37.10
2019-05-03T11:43:39.549Z,37.80
2019-05-03T11:48:45.483Z,38.20
2019-05-03T11:53:50.113Z,36.60
2019-05-03T11:58:55.041Z,37.50
2019-05-03T12:04:05.064Z,36.90
2019-05-03T12:09:09.506Z,38.50
2019-05-03T12:14:15.439Z,37.00
2019-05-03T12:19:24.191Z,37.40
2019-05-03T12:36:15.924Z,34.30
2019-05-03T12:41:20.307Z,35.60
2019-05-03T12:46:26.223Z,37.50
2019-05-03T12:51:30.723Z,35.90
2019-05-03T12:56:35.902Z,35.60
2019-05-03T13:01:55.698Z,33.50
2019-05-03T13:07:08.739Z,34.60
2019-05-03T13:12:14.928Z,35.50
2019-05-03T13:17:35.668Z,36.60
2019-05-03T13:22:39.954Z,37.30
2019-05-03T13:27:46.204Z,37.60
2019-05-03T13:32:50.262Z,36.00
2019-05-03T13:37:55.669Z,35.80
2019-05-03T13:43:03.877Z,34.90
2019-05-03T13:48:06.232Z,35.60
2019-05-03T13:53:10.534Z,37.00
2019-05-03T13:58:15.143Z,37.70
2019-05-03T14:03:19.597Z,37.80
2019-05-03T14:08:25.399Z,38.10
2019-05-03T14:13:29.993Z,38.50
2019-05-03T14:18:35.632Z,37.70
2019-05-03T14:23:57.661Z,39.40
2019-05-03T14:29:02.031Z,41.10
2019-05-03T14:34:06.479Z,39.50
2019-05-03T14:39:10.878Z,37.50
2019-05-03T14:44:17.939Z,37.60
2019-05-03T14:49:21.248Z,38.10
2019-05-03T14:54:27.513Z,38.70
2019-05-03T15:00:09.206Z,37.90
2019-05-03T15:05:14.908Z,36.50
2019-05-03T15:10:19.438Z,37.70
2019-05-03T15:15:25.074Z,37.60
2019-05-03T15:20:29.866Z,37.20
2019-05-03T15:25:34.656Z,36.30
2019-05-03T15:30:39.380Z,35.30
2019-05-03T15:35:46.568Z,34.10
2019-05-03T15:40:50.378Z,34.90
2019-05-03T15:46:14.611Z,35.70
2019-05-03T15:51:19.141Z,36.30
2019-05-03T15:56:25.234Z,35.70
2019-05-03T16:01:30.499Z,35.80
2019-05-03T16:06:35.136Z,36.70
2019-05-03T16:11:40.051Z,36.80
2019-05-03T16:16:45.150Z,37.10
2019-05-03T16:21:50.045Z,38.40
2019-05-03T16:27:15.887Z,38.40
2019-05-03T16:32:20.500Z,39.20
2019-05-03T16:37:28.025Z,39.40
2019-05-03T16:42:32.516Z,40.20
2019-05-03T16:47:37.041Z,41.10
2019-05-03T16:52:41.516Z,41.10
2019-05-03T16:57:45.953Z,41.10
2019-05-03T17:02:51.800Z,41.50
2019-05-03T17:08:25.292Z,42.00
2019-05-03T17:13:30.119Z,42.20
2019-05-03T17:18:35.353Z,43.00
2019-05-03T17:23:40.192Z,41.60
2019-05-03T17:28:44.940Z,42.30
2019-05-03T17:33:53.540Z,42.20
2019-05-03T17:38:59.064Z,41.50
2019-05-03T17:44:25.545Z,42.10
2019-05-03T17:55:44.589Z,42.80
2019-05-03T18:01:11.592Z,43.20
2019-05-03T18:06:25.399Z,42.80
2019-05-03T18:11:35.873Z,42.10
2019-05-03T18:16:40.455Z,42.60
2019-05-03T18:21:45.075Z,42.40
2019-05-03T18:26:49.909Z,42.60
2019-05-03T18:31:55.985Z,42.90
2019-05-03T18:37:00.872Z,43.30
2019-05-03T18:42:07.579Z,42.90
2019-05-03T18:47:17.621Z,42.70
2019-05-03T18:52:22.209Z,42.30
2019-05-03T18:57:28.602Z,42.40
2019-05-03T19:08:18.303Z,43.40
2019-05-03T19:13:28.524Z,43.80
2019-05-03T19:18:35.478Z,44.40
2019-05-03T19:29:48.203Z,46.50
2019-05-03T19:34:54.919Z,45.80
2019-05-03T19:40:00.490Z,45.60
2019-05-03T19:50:16.265Z,46.30
2019-05-03T19:55:22.523Z,48.80
2019-05-03T20:00:31.448Z,47.30
2019-05-03T20:05:56.409Z,49.80
2019-05-03T20:11:16.472Z,48.90
2019-05-03T20:16:21.740Z,49.60
2019-05-03T20:21:26.707Z,50.70
2019-05-03T20:26:31.469Z,52.60
2019-05-03T20:31:42.188Z,55.60
2019-05-03T20:36:54.873Z,58.30
2019-05-03T20:41:59.866Z,58.90
2019-05-03T20:47:25.312Z,60.50
2019-05-03T20:52:44.537Z,61.70
2019-05-03T20:57:51.887Z,63.00
2019-05-03T21:02:57.542Z,64.40
2019-05-03T21:08:05.397Z,65.40
2019-05-03T21:13:09.744Z,67.60
2019-05-03T21:18:35.772Z,68.00
2019-05-03T21:23:46.297Z,71.20
2019-05-03T21:28:51.100Z,70.90
2019-05-03T21:33:56.848Z,73.20
2019-05-03T21:39:01.523Z,79.00
2019-05-03T21:44:05.966Z,78.70
2019-05-03T21:49:16.153Z,75.20
2019-05-03T21:54:24.482Z,74.70
2019-05-03T21:59:28.399Z,76.30
2019-05-03T22:04:35.035Z,78.90
2019-05-03T22:09:39.370Z,76.80
2019-05-03T22:14:54.528Z,74.80
2019-05-03T22:20:04.885Z,77.40
2019-05-03T22:31:13.123Z,76.20
2019-05-03T22:36:17.810Z,77.80
2019-05-03T22:41:22.428Z,83.70
2019-05-03T22:46:27.050Z,82.20
2019-05-03T22:51:31.724Z,83.70
2019-05-03T22:56:36.238Z,81.90
2019-05-03T23:01:40.654Z,84.40
2019-05-03T23:06:47.113Z,79.20
2019-05-03T23:11:51.263Z,84.20
2019-05-03T23:16:55.788Z,86.70
2019-05-03T23:22:09.126Z,86.40
2019-05-03T23:27:14.450Z,90.10
2019-05-03T23:32:19.147Z,90.60
2019-05-03T23:37:23.876Z,89.50
2019-05-03T23:42:28.431Z,89.80
2019-05-03T23:47:38.403Z,89.80
2019-05-03T23:52:45.075Z,90.40
2019-05-03T23:57:49.843Z,88.10
